sensor_id;sensor_type;location;lat;lon;timestamp;pressure;altitude;pressure_sealevel;temperature;humidity
11692;BME280;33659;42.672;23.354;2023-12-20T00:02:03;67493.38;;;4.77;72.56
11692;BME280;33659;42.672;23.354;2023-12-20T00:04:30;67485.03;;;4.64;72.68
11692;BME280;33659;42.672;23.354;2023-12-20T00:06:56;67479.66;;;4.59;73.65
11692;BME280;33659;42.672;23.354;2023-12-20T00:09:24;67473.84;;;4.56;73.06
11692;BME280;33659;42.672;23.354;2023-12-20T00:11:51;67464.03;;;4.44;73.05
11692;BME280;33659;42.672;23.354;2023-12-20T00:14:18;67468.88;;;4.49;73.65
11692;BME280;33659;42.672;23.354;2023-12-20T00:16:44;67463.09;;;4.46;73.59
11692;BME280;33659;42.672;23.354;2023-12-20T00:19:11;67462.03;;;4.45;73.63
11692;BME280;33659;42.672;23.354;2023-12-20T00:21:38;67462.41;;;4.43;73.80
11692;BME280;33659;42.672;23.354;2023-12-20T00:24:05;67457.28;;;4.43;73.38
11692;BME280;33659;42.672;23.354;2023-12-20T00:26:33;67465.66;;;4.46;73.62
11692;BME280;33659;42.672;23.354;2023-12-20T00:28:59;67468.34;;;4.48;72.87
11692;BME280;33659;42.672;23.354;2023-12-20T00:31:26;67469.56;;;4.52;72.70
11692;BME280;33659;42.672;23.354;2023-12-20T00:33:53;67468.34;;;4.48;73.02
11692;BME280;33659;42.672;23.354;2023-12-20T00:36:19;67469.41;;;4.49;72.71
11692;BME280;33659;42.672;23.354;2023-12-20T00:38:46;67471.16;;;4.53;72.64
11692;BME280;33659;42.672;23.354;2023-12-20T00:41:13;67467.94;;;4.50;72.58
11692;BME280;33659;42.672;23.354;2023-12-20T00:43:42;67468.34;;;4.48;72.63
11692;BME280;33659;42.672;23.354;2023-12-20T00:46:09;67464.59;;;4.45;72.12
11692;BME280;33659;42.672;23.354;2023-12-20T00:48:36;67459.19;;;4.40;72.33
11692;BME280;33659;42.672;23.354;2023-12-20T00:51:03;67450.56;;;4.31;72.08
11692;BME280;33659;42.672;23.354;2023-12-20T00:53:30;67432.94;;;4.17;71.96
11692;BME280;33659;42.672;23.354;2023-12-20T00:55:57;67425.81;;;4.08;73.14
11692;BME280;33659;42.672;23.354;2023-12-20T00:58:24;67416.66;;;3.99;72.83
11692;BME280;33659;42.672;23.354;2023-12-20T01:00:53;67397.81;;;3.82;73.94
11692;BME280;33659;42.672;23.354;2023-12-20T01:03:19;67384.91;;;3.69;75.09
11692;BME280;33659;42.672;23.354;2023-12-20T01:05:46;67379.00;;;3.64;76.13
11692;BME280;33659;42.672;23.354;2023-12-20T01:08:13;67374.66;;;3.60;77.26
11692;BME280;33659;42.672;23.354;2023-12-20T01:10:39;67373.59;;;3.59;77.12
11692;BME280;33659;42.672;23.354;2023-12-20T01:13:06;67371.56;;;3.59;77.79
11692;BME280;33659;42.672;23.354;2023-12-20T01:15:34;67364.59;;;3.52;77.68
11692;BME280;33659;42.672;23.354;2023-12-20T01:18:02;67391.38;;;3.75;76.37
11692;BME280;33659;42.672;23.354;2023-12-20T01:20:29;67399.56;;;3.86;76.37
11692;BME280;33659;42.672;23.354;2023-12-20T01:22:56;67408.56;;;3.92;75.82
11692;BME280;33659;42.672;23.354;2023-12-20T01:25:22;67421.50;;;4.04;75.84
11692;BME280;33659;42.672;23.354;2023-12-20T01:27:49;67431.19;;;4.13;74.79
11692;BME280;33659;42.672;23.354;2023-12-20T01:30:16;67444.13;;;4.25;74.88
11692;BME280;33659;42.672;23.354;2023-12-20T01:32:43;67452.72;;;4.33;72.91
11692;BME280;33659;42.672;23.354;2023-12-20T01:35:11;67451.78;;;4.35;72.14
11692;BME280;33659;42.672;23.354;2023-12-20T01:37:38;67450.69;;;4.34;72.00
11692;BME280;33659;42.672;23.354;2023-12-20T01:40:06;67445.84;;;4.29;71.32
11692;BME280;33659;42.672;23.354;2023-12-20T01:42:33;67441.41;;;4.23;70.82
11692;BME280;33659;42.672;23.354;2023-12-20T01:45:00;67452.72;;;4.33;71.08
11692;BME280;33659;42.672;23.354;2023-12-20T01:47:27;67425.94;;;4.11;71.00
11692;BME280;33659;42.672;23.354;2023-12-20T01:49:54;67397.41;;;3.84;71.62
11692;BME280;33659;42.672;23.354;2023-12-20T01:52:24;67368.34;;;3.56;72.33
11692;BME280;33659;42.672;23.354;2023-12-20T01:54:51;67347.91;;;3.37;74.07
11692;BME280;33659;42.672;23.354;2023-12-20T01:57:20;67335.00;;;3.24;74.87
11692;BME280;33659;42.672;23.354;2023-12-20T01:59:46;67348.88;;;3.35;74.99
11692;BME280;33659;42.672;23.354;2023-12-20T02:02:14;67351.66;;;3.40;74.86
11692;BME280;33659;42.672;23.354;2023-12-20T02:04:40;67348.56;;;3.40;73.89
11692;BME280;33659;42.672;23.354;2023-12-20T02:07:07;67341.47;;;3.31;73.44
11692;BME280;33659;42.672;23.354;2023-12-20T02:09:36;67337.69;;;3.27;74.33
11692;BME280;33659;42.672;23.354;2023-12-20T02:12:03;67332.97;;;3.25;74.37
11692;BME280;33659;42.672;23.354;2023-12-20T02:14:30;67326.94;;;3.17;74.71
11692;BME280;33659;42.672;23.354;2023-12-20T02:16:57;67326.94;;;3.17;74.28
11692;BME280;33659;42.672;23.354;2023-12-20T02:19:23;67324.38;;;3.17;74.39
11692;BME280;33659;42.672;23.354;2023-12-20T02:22:04;67346.84;;;3.36;74.64
11692;BME280;33659;42.672;23.354;2023-12-20T02:24:31;67359.75;;;3.48;73.44
11692;BME280;33659;42.672;23.354;2023-12-20T02:26:58;67371.44;;;3.57;73.03
11692;BME280;33659;42.672;23.354;2023-12-20T02:29:25;67382.22;;;3.67;72.42
11692;BME280;33659;42.672;23.354;2023-12-20T02:31:52;67388.81;;;3.75;71.91
11692;BME280;33659;42.672;23.354;2023-12-20T02:34:19;67396.75;;;3.80;71.46
11692;BME280;33659;42.672;23.354;2023-12-20T02:36:45;67400.66;;;3.87;71.33
11692;BME280;33659;42.672;23.354;2023-12-20T02:39:14;67398.47;;;3.85;70.19
11692;BME280;33659;42.672;23.354;2023-12-20T02:41:40;67406.97;;;3.90;69.70
11692;BME280;33659;42.672;23.354;2023-12-20T02:44:07;67402.66;;;3.86;69.75
11692;BME280;33659;42.672;23.354;2023-12-20T02:46:34;67399.56;;;3.86;69.96
11692;BME280;33659;42.672;23.354;2023-12-20T02:49:00;67406.00;;;3.92;69.59
11692;BME280;33659;42.672;23.354;2023-12-20T02:51:27;67406.44;;;3.90;69.25
11692;BME280;33659;42.672;23.354;2023-12-20T02:53:54;67403.88;;;3.90;68.32
11692;BME280;33659;42.672;23.354;2023-12-20T02:56:22;67402.78;;;3.89;67.83
11692;BME280;33659;42.672;23.354;2023-12-20T02:58:48;67390.53;;;3.79;67.58
11692;BME280;33659;42.672;23.354;2023-12-20T03:01:15;67385.56;;;3.72;68.28
11692;BME280;33659;42.672;23.354;2023-12-20T03:03:42;67384.91;;;3.69;67.80
11692;BME280;33659;42.672;23.354;2023-12-20T03:06:08;67375.34;;;3.63;67.28
11692;BME280;33659;42.672;23.354;2023-12-20T03:08:35;67372.00;;;3.57;67.92
11692;BME280;33659;42.672;23.354;2023-12-20T03:11:02;67368.34;;;3.56;67.56
11692;BME280;33659;42.672;23.354;2023-12-20T03:13:30;67368.22;;;3.53;68.12
11692;BME280;33659;42.672;23.354;2023-12-20T03:15:57;67369.84;;;3.55;67.56
11692;BME280;33659;42.672;23.354;2023-12-20T03:18:23;67366.88;;;3.57;68.17
11692;BME280;33659;42.672;23.354;2023-12-20T03:20:50;67366.19;;;3.54;67.66
11692;BME280;33659;42.672;23.354;2023-12-20T03:23:17;67365.13;;;3.53;68.35
11692;BME280;33659;42.672;23.354;2023-12-20T03:25:43;67365.13;;;3.53;68.39
11692;BME280;33659;42.672;23.354;2023-12-20T03:28:10;67361.38;;;3.49;68.33
11692;BME280;33659;42.672;23.354;2023-12-20T03:30:38;67360.16;;;3.46;68.84
11692;BME280;33659;42.672;23.354;2023-12-20T03:33:05;67352.63;;;3.39;68.24
11692;BME280;33659;42.672;23.354;2023-12-20T03:35:33;67348.97;;;3.38;68.48
11692;BME280;33659;42.672;23.354;2023-12-20T03:37:59;67332.19;;;3.19;69.07
11692;BME280;33659;42.672;23.354;2023-12-20T03:40:26;67322.09;;;3.12;70.25
11692;BME280;33659;42.672;23.354;2023-12-20T03:42:53;67316.84;;;3.10;70.78
11692;BME280;33659;42.672;23.354;2023-12-20T03:45:20;67310.78;;;3.02;71.11
11692;BME280;33659;42.672;23.354;2023-12-20T03:47:48;67298.03;;;2.92;72.02
11692;BME280;33659;42.672;23.354;2023-12-20T03:50:15;67302.59;;;2.91;72.58
11692;BME280;33659;42.672;23.354;2023-12-20T03:52:42;67302.72;;;2.94;72.29
11692;BME280;33659;42.672;23.354;2023-12-20T03:55:08;67291.41;;;2.83;73.44
11692;BME280;33659;42.672;23.354;2023-12-20T03:57:35;67290.75;;;2.80;72.63
11692;BME280;33659;42.672;23.354;2023-12-20T04:00:02;67286.59;;;2.79;72.50
11692;BME280;33659;42.672;23.354;2023-12-20T04:02:29;67282.28;;;2.75;72.61
11692;BME280;33659;42.672;23.354;2023-12-20T04:04:57;67285.38;;;2.75;72.01
11692;BME280;33659;42.672;23.354;2023-12-20T04:07:24;67289.81;;;2.82;72.60
11692;BME280;33659;42.672;23.354;2023-12-20T04:09:50;67285.13;;;2.80;72.06
11692;BME280;33659;42.672;23.354;2023-12-20T04:12:17;67294.13;;;2.86;72.41
11692;BME280;33659;42.672;23.354;2023-12-20T04:14:43;67298.03;;;2.92;71.81
11692;BME280;33659;42.672;23.354;2023-12-20T04:17:10;67310.13;;;2.98;70.66
11692;BME280;33659;42.672;23.354;2023-12-20T04:19:37;67314.56;;;3.05;70.45
11692;BME280;33659;42.672;23.354;2023-12-20T04:22:05;67315.63;;;3.06;70.41
11692;BME280;33659;42.672;23.354;2023-12-20T04:24:31;67319.41;;;3.10;70.04
11692;BME280;33659;42.672;23.354;2023-12-20T04:26:58;67321.56;;;3.12;69.25
11692;BME280;33659;42.672;23.354;2023-12-20T04:29:25;67319.53;;;3.12;69.92
11692;BME280;33659;42.672;23.354;2023-12-20T04:31:51;67324.22;;;3.14;69.46
11692;BME280;33659;42.672;23.354;2023-12-20T04:34:18;67326.78;;;3.14;69.73
11692;BME280;33659;42.672;23.354;2023-12-20T04:36:45;67324.91;;;3.17;69.48
11692;BME280;33659;42.672;23.354;2023-12-20T04:39:13;67329.06;;;3.19;69.41
11692;BME280;33659;42.672;23.354;2023-12-20T04:41:40;67325.88;;;3.16;69.00
11692;BME280;33659;42.672;23.354;2023-12-20T04:44:07;67326.41;;;3.16;68.70
11692;BME280;33659;42.672;23.354;2023-12-20T04:46:33;67319.94;;;3.10;68.48
11692;BME280;33659;42.672;23.354;2023-12-20T04:49:01;67323.16;;;3.13;67.84
11692;BME280;33659;42.672;23.354;2023-12-20T04:51:28;67316.72;;;3.07;67.31
11692;BME280;33659;42.672;23.354;2023-12-20T04:53:54;67314.56;;;3.05;67.24
11692;BME280;33659;42.672;23.354;2023-12-20T04:56:22;67300.69;;;2.94;67.07
11692;BME280;33659;42.672;23.354;2023-12-20T04:58:49;67289.69;;;2.79;67.69
11692;BME280;33659;42.672;23.354;2023-12-20T05:01:16;67287.13;;;2.79;67.77
11692;BME280;33659;42.672;23.354;2023-12-20T05:03:43;67279.72;;;2.75;67.95
11692;BME280;33659;42.672;23.354;2023-12-20T05:06:10;67273.81;;;2.69;68.10
11692;BME280;33659;42.672;23.354;2023-12-20T05:08:36;67263.59;;;2.59;68.21
11692;BME280;33659;42.672;23.354;2023-12-20T05:11:03;67257.16;;;2.53;68.86
11692;BME280;33659;42.672;23.354;2023-12-20T05:13:32;67251.13;;;2.45;68.88
11692;BME280;33659;42.672;23.354;2023-12-20T05:15:58;67251.66;;;2.46;68.76
11692;BME280;33659;42.672;23.354;2023-12-20T05:18:25;67245.75;;;2.40;68.92
11692;BME280;33659;42.672;23.354;2023-12-20T05:20:52;67236.59;;;2.31;68.69
11692;BME280;33659;42.672;23.354;2023-12-20T05:23:19;67234.03;;;2.31;69.27
11692;BME280;33659;42.672;23.354;2023-12-20T05:25:45;67231.34;;;2.29;68.98
11692;BME280;33659;42.672;23.354;2023-12-20T05:28:12;67239.28;;;2.34;68.85
11692;BME280;33659;42.672;23.354;2023-12-20T05:30:40;67244.00;;;2.36;69.29
11692;BME280;33659;42.672;23.354;2023-12-20T05:33:07;67245.06;;;2.37;69.46
11692;BME280;33659;42.672;23.354;2023-12-20T05:35:34;67240.34;;;2.35;69.68
11692;BME280;33659;42.672;23.354;2023-12-20T05:38:00;67238.88;;;2.36;69.30
11692;BME280;33659;42.672;23.354;2023-12-20T05:40:27;67234.97;;;2.30;69.64
11692;BME280;33659;42.672;23.354;2023-12-20T05:42:54;67224.25;;;2.20;69.97
11692;BME280;33659;42.672;23.354;2023-12-20T05:45:20;67220.59;;;2.18;70.03
11692;BME280;33659;42.672;23.354;2023-12-20T05:47:47;67222.22;;;2.20;70.89
11692;BME280;33659;42.672;23.354;2023-12-20T05:50:14;67223.16;;;2.18;70.40
11692;BME280;33659;42.672;23.354;2023-12-20T05:52:41;67212.00;;;2.10;70.19
11692;BME280;33659;42.672;23.354;2023-12-20T05:55:07;67223.72;;;2.19;70.60
11692;BME280;33659;42.672;23.354;2023-12-20T05:57:34;67225.84;;;2.21;70.37
11692;BME280;33659;42.672;23.354;2023-12-20T06:00:01;67226.38;;;2.22;70.19
11692;BME280;33659;42.672;23.354;2023-12-20T06:02:28;67229.59;;;2.25;70.40
11692;BME280;33659;42.672;23.354;2023-12-20T06:04:56;67241.31;;;2.33;70.35
11692;BME280;33659;42.672;23.354;2023-12-20T06:07:23;67240.91;;;2.35;70.14
11692;BME280;33659;42.672;23.354;2023-12-20T06:09:50;67250.44;;;2.42;69.81
11692;BME280;33659;42.672;23.354;2023-12-20T06:12:16;67255.28;;;2.47;69.61
11692;BME280;33659;42.672;23.354;2023-12-20T06:14:43;67254.88;;;2.49;69.73
11692;BME280;33659;42.672;23.354;2023-12-20T06:17:10;67254.34;;;2.48;70.35
11692;BME280;33659;42.672;23.354;2023-12-20T06:19:36;67260.09;;;2.51;69.60
11692;BME280;33659;42.672;23.354;2023-12-20T06:22:04;67258.66;;;2.52;70.38
11692;BME280;33659;42.672;23.354;2023-12-20T06:24:31;67264.94;;;2.56;69.78
11692;BME280;33659;42.672;23.354;2023-12-20T06:26:59;67264.00;;;2.57;69.60
11692;BME280;33659;42.672;23.354;2023-12-20T06:29:26;67265.63;;;2.59;69.04
11692;BME280;33659;42.672;23.354;2023-12-20T06:31:52;67266.56;;;2.57;69.93
11692;BME280;33659;42.672;23.354;2023-12-20T06:34:19;67250.56;;;2.44;70.13
11692;BME280;33659;42.672;23.354;2023-12-20T06:36:46;67236.72;;;2.34;70.96
11692;BME280;33659;42.672;23.354;2023-12-20T06:39:14;67246.69;;;2.38;70.16
11692;BME280;33659;42.672;23.354;2023-12-20T06:41:40;67251.50;;;2.43;70.52
11692;BME280;33659;42.672;23.354;2023-12-20T06:44:08;67258.09;;;2.52;70.30
11692;BME280;33659;42.672;23.354;2023-12-20T06:46:34;67269.38;;;2.62;70.22
11692;BME280;33659;42.672;23.354;2023-12-20T06:49:01;67268.31;;;2.61;69.81
11692;BME280;33659;42.672;23.354;2023-12-20T06:51:28;67268.31;;;2.61;69.75
11692;BME280;33659;42.672;23.354;2023-12-20T06:53:56;67260.78;;;2.54;70.29
11692;BME280;33659;42.672;23.354;2023-12-20T06:56:24;67261.31;;;2.55;70.61
11692;BME280;33659;42.672;23.354;2023-12-20T06:58:50;67268.31;;;2.61;70.97
11692;BME280;33659;42.672;23.354;2023-12-20T07:01:17;67271.13;;;2.66;69.89
11692;BME280;33659;42.672;23.354;2023-12-20T07:03:44;67283.91;;;2.76;69.93
11692;BME280;33659;42.672;23.354;2023-12-20T07:06:10;67300.03;;;2.91;70.35
11692;BME280;33659;42.672;23.354;2023-12-20T07:08:38;67310.78;;;3.02;69.56
11692;BME280;33659;42.672;23.354;2023-12-20T07:11:05;67324.91;;;3.17;69.15
11692;BME280;33659;42.672;23.354;2023-12-20T07:13:33;67349.94;;;3.36;68.76
11692;BME280;33659;42.672;23.354;2023-12-20T07:16:00;67359.75;;;3.48;68.25
11692;BME280;33659;42.672;23.354;2023-12-20T07:18:26;67365.53;;;3.51;68.00
11692;BME280;33659;42.672;23.354;2023-12-20T07:20:53;67360.81;;;3.49;68.24
11692;BME280;33659;42.672;23.354;2023-12-20T07:23:20;67375.63;;;3.58;67.26
11692;BME280;33659;42.672;23.354;2023-12-20T07:25:47;67374.13;;;3.59;67.39
11692;BME280;33659;42.672;23.354;2023-12-20T07:28:14;67379.09;;;3.66;67.21
11692;BME280;33659;42.672;23.354;2023-12-20T07:30:42;67385.56;;;3.72;67.17
11692;BME280;33659;42.672;23.354;2023-12-20T07:33:08;67392.69;;;3.82;67.55
11692;BME280;33659;42.672;23.354;2023-12-20T07:35:35;67409.25;;;3.95;66.89
11692;BME280;33659;42.672;23.354;2023-12-20T07:38:02;67413.56;;;3.99;66.47
11692;BME280;33659;42.672;23.354;2023-12-20T07:40:28;67406.00;;;3.92;66.82
11692;BME280;33659;42.672;23.354;2023-12-20T07:42:55;67394.19;;;3.80;67.00
11692;BME280;33659;42.672;23.354;2023-12-20T07:45:23;67382.34;;;3.69;67.41
11692;BME280;33659;42.672;23.354;2023-12-20T07:47:52;67383.41;;;3.70;67.48
11692;BME280;33659;42.672;23.354;2023-12-20T07:50:19;67383.41;;;3.70;68.16
11692;BME280;33659;42.672;23.354;2023-12-20T07:52:46;67378.44;;;3.63;68.57
11692;BME280;33659;42.672;23.354;2023-12-20T07:55:13;67379.66;;;3.67;68.20
11692;BME280;33659;42.672;23.354;2023-12-20T07:57:40;67384.50;;;3.71;68.27
11692;BME280;33659;42.672;23.354;2023-12-20T08:00:07;67386.63;;;3.73;68.16
11692;BME280;33659;42.672;23.354;2023-12-20T08:02:34;67389.88;;;3.76;68.08
11692;BME280;33659;42.672;23.354;2023-12-20T08:05:03;67398.47;;;3.85;68.16
11692;BME280;33659;42.672;23.354;2023-12-20T08:07:29;67400.66;;;3.87;67.99
11692;BME280;33659;42.672;23.354;2023-12-20T08:09:56;67400.09;;;3.86;67.99
11692;BME280;33659;42.672;23.354;2023-12-20T08:12:23;67401.59;;;3.85;68.48
11692;BME280;33659;42.672;23.354;2023-12-20T08:14:52;67399.97;;;3.84;68.24
11692;BME280;33659;42.672;23.354;2023-12-20T08:17:19;67406.00;;;3.92;68.02
11692;BME280;33659;42.672;23.354;2023-12-20T08:19:46;67415.56;;;3.98;68.33
11692;BME280;33659;42.672;23.354;2023-12-20T08:22:14;67430.66;;;4.13;68.46
11692;BME280;33659;42.672;23.354;2023-12-20T08:24:40;67434.00;;;4.18;67.96
11692;BME280;33659;42.672;23.354;2023-12-20T08:27:07;67425.94;;;4.11;68.36
11692;BME280;33659;42.672;23.354;2023-12-20T08:29:34;67429.03;;;4.11;68.60
11692;BME280;33659;42.672;23.354;2023-12-20T08:32:01;67475.88;;;4.55;67.82
11692;BME280;33659;42.672;23.354;2023-12-20T08:34:28;67508.31;;;4.88;67.94
11692;BME280;33659;42.672;23.354;2023-12-20T08:36:55;67515.84;;;4.96;65.70
11692;BME280;33659;42.672;23.354;2023-12-20T08:39:23;67515.75;;;4.93;66.08
11692;BME280;33659;42.672;23.354;2023-12-20T08:41:49;67501.72;;;4.80;66.73
11692;BME280;33659;42.672;23.354;2023-12-20T08:44:16;67500.78;;;4.81;66.64
11692;BME280;33659;42.672;23.354;2023-12-20T08:46:43;67497.41;;;4.76;66.64
11692;BME280;33659;42.672;23.354;2023-12-20T08:49:10;67477.09;;;4.59;66.42
11692;BME280;33659;42.672;23.354;2023-12-20T08:51:36;67463.09;;;4.46;67.79
11692;BME280;33659;42.672;23.354;2023-12-20T08:54:05;67461.47;;;4.44;67.95
11692;BME280;33659;42.672;23.354;2023-12-20T08:56:34;67457.16;;;4.40;68.11
11692;BME280;33659;42.672;23.354;2023-12-20T08:59:01;67454.34;;;4.35;68.39
11692;BME280;33659;42.672;23.354;2023-12-20T09:01:28;67451.78;;;4.35;68.53
11692;BME280;33659;42.672;23.354;2023-12-20T09:03:54;67432.28;;;4.14;69.68
11692;BME280;33659;42.672;23.354;2023-12-20T09:06:21;67428.50;;;4.11;69.26
11692;BME280;33659;42.672;23.354;2023-12-20T09:08:47;67424.19;;;4.06;69.66
11692;BME280;33659;42.672;23.354;2023-12-20T09:11:14;67415.56;;;3.98;70.04
11692;BME280;33659;42.672;23.354;2023-12-20T09:13:44;67404.53;;;3.93;70.31
11692;BME280;33659;42.672;23.354;2023-12-20T09:16:10;67409.78;;;3.95;70.92
11692;BME280;33659;42.672;23.354;2023-12-20T09:18:38;67411.00;;;3.99;70.30
11692;BME280;33659;42.672;23.354;2023-12-20T09:21:05;67423.25;;;4.08;70.90
11692;BME280;33659;42.672;23.354;2023-12-20T09:23:31;67427.97;;;4.10;70.26
11692;BME280;33659;42.672;23.354;2023-12-20T09:25:58;67428.09;;;4.13;70.77
11692;BME280;33659;42.672;23.354;2023-12-20T09:28:24;67424.75;;;4.07;70.71
11692;BME280;33659;42.672;23.354;2023-12-20T09:30:53;67418.41;;;4.03;71.65
11692;BME280;33659;42.672;23.354;2023-12-20T09:33:19;67426.88;;;4.09;71.71
11692;BME280;33659;42.672;23.354;2023-12-20T09:35:46;67417.44;;;4.05;71.95
11692;BME280;33659;42.672;23.354;2023-12-20T09:38:13;67412.47;;;3.98;71.57
11692;BME280;33659;42.672;23.354;2023-12-20T09:40:41;67416.78;;;4.02;72.11
11692;BME280;33659;42.672;23.354;2023-12-20T09:43:10;67418.94;;;4.04;72.24
11692;BME280;33659;42.672;23.354;2023-12-20T09:45:39;67432.81;;;4.15;71.57
11692;BME280;33659;42.672;23.354;2023-12-20T09:48:10;67441.56;;;4.25;71.25
11692;BME280;33659;42.672;23.354;2023-12-20T09:50:37;67444.25;;;4.28;71.02
11692;BME280;33659;42.672;23.354;2023-12-20T09:53:04;67437.66;;;4.19;71.71
11692;BME280;33659;42.672;23.354;2023-12-20T09:55:32;67435.75;;;4.22;72.11
11692;BME280;33659;42.672;23.354;2023-12-20T09:57:59;67452.19;;;4.33;71.86
11692;BME280;33659;42.672;23.354;2023-12-20T10:00:26;67473.72;;;4.53;71.06
11692;BME280;33659;42.672;23.354;2023-12-20T10:02:57;67481.00;;;4.65;70.77
11692;BME280;33659;42.672;23.354;2023-12-20T10:05:27;67533.53;;;5.10;70.36
11692;BME280;33659;42.672;23.354;2023-12-20T10:07:54;67614.78;;;5.84;68.22
11692;BME280;33659;42.672;23.354;2023-12-20T10:10:21;67684.50;;;6.53;64.37
11692;BME280;33659;42.672;23.354;2023-12-20T10:13:01;67703.91;;;6.71;63.92
11692;BME280;33659;42.672;23.354;2023-12-20T10:15:28;67737.47;;;7.05;63.18
11692;BME280;33659;42.672;23.354;2023-12-20T10:17:54;67771.22;;;7.32;62.37
11692;BME280;33659;42.672;23.354;2023-12-20T10:20:21;67805.91;;;7.67;61.72
11692;BME280;33659;42.672;23.354;2023-12-20T10:22:49;67855.03;;;8.13;60.14
11692;BME280;33659;42.672;23.354;2023-12-20T10:25:19;67929.38;;;8.79;58.45
11692;BME280;33659;42.672;23.354;2023-12-20T10:27:45;67987.88;;;9.36;57.00
11692;BME280;33659;42.672;23.354;2023-12-20T10:30:13;68048.00;;;9.95;55.27
11692;BME280;33659;42.672;23.354;2023-12-20T10:32:39;68066.94;;;10.13;54.24
11692;BME280;33659;42.672;23.354;2023-12-20T10:35:07;68114.97;;;10.56;53.09
11692;BME280;33659;42.672;23.354;2023-12-20T10:37:35;68124.63;;;10.63;52.07
11692;BME280;33659;42.672;23.354;2023-12-20T10:40:04;68120.41;;;10.61;51.86
11692;BME280;33659;42.672;23.354;2023-12-20T10:42:32;68100.91;;;10.43;52.31
11692;BME280;33659;42.672;23.354;2023-12-20T10:45:00;68097.25;;;10.42;52.56
11692;BME280;33659;42.672;23.354;2023-12-20T10:47:27;68120.41;;;10.61;52.25
11692;BME280;33659;42.672;23.354;2023-12-20T10:49:54;68135.13;;;10.77;51.42
11692;BME280;33659;42.672;23.354;2023-12-20T10:52:23;68171.94;;;11.12;50.75
11692;BME280;33659;42.672;23.354;2023-12-20T10:54:50;68199.44;;;11.35;50.64
11692;BME280;33659;42.672;23.354;2023-12-20T10:57:18;68226.63;;;11.63;49.57
11692;BME280;33659;42.672;23.354;2023-12-20T10:59:45;68262.28;;;11.95;49.06
11692;BME280;33659;42.672;23.354;2023-12-20T11:02:13;68295.19;;;12.23;48.06
11692;BME280;33659;42.672;23.354;2023-12-20T11:04:59;68294.34;;;12.27;47.55
11692;BME280;33659;42.672;23.354;2023-12-20T11:07:32;68314.28;;;12.43;47.47
11692;BME280;33659;42.672;23.354;2023-12-20T11:10:02;68277.44;;;12.09;47.40
11692;BME280;33659;42.672;23.354;2023-12-20T11:12:38;68252.94;;;11.83;48.22
11692;BME280;33659;42.672;23.354;2023-12-20T11:15:08;68247.75;;;11.83;48.60
11692;BME280;33659;42.672;23.354;2023-12-20T11:17:34;68268.78;;;12.01;48.02
11692;BME280;33659;42.672;23.354;2023-12-20T11:20:07;68221.09;;;11.56;48.60
11692;BME280;33659;42.672;23.354;2023-12-20T11:22:36;68155.69;;;10.97;49.87
11692;BME280;33659;42.672;23.354;2023-12-20T11:25:07;68113.50;;;10.57;50.75
11692;BME280;33659;42.672;23.354;2023-12-20T11:27:37;68046.25;;;9.91;52.62
11692;BME280;33659;42.672;23.354;2023-12-20T11:30:07;67972.19;;;9.21;54.86
11692;BME280;33659;42.672;23.354;2023-12-20T11:32:36;67913.41;;;8.68;56.59
11692;BME280;33659;42.672;23.354;2023-12-20T11:35:17;67906.25;;;8.59;57.76
11692;BME280;33659;42.672;23.354;2023-12-20T11:37:45;68001.38;;;9.49;55.83
11692;BME280;33659;42.672;23.354;2023-12-20T11:40:14;68040.88;;;9.86;54.35
11692;BME280;33659;42.672;23.354;2023-12-20T11:42:44;68013.41;;;9.63;54.31
11692;BME280;33659;42.672;23.354;2023-12-20T11:45:13;67974.59;;;9.29;55.64
11692;BME280;33659;42.672;23.354;2023-12-20T11:47:42;67943.53;;;8.94;56.64
11692;BME280;33659;42.672;23.354;2023-12-20T11:50:09;67908.00;;;8.63;57.79
11692;BME280;33659;42.672;23.354;2023-12-20T11:52:35;67873.41;;;8.31;58.71
11692;BME280;33659;42.672;23.354;2023-12-20T11:55:03;67844.22;;;8.03;59.58
11692;BME280;33659;42.672;23.354;2023-12-20T11:57:29;67824.38;;;7.87;60.20
11692;BME280;33659;42.672;23.354;2023-12-20T11:59:58;67852.88;;;8.11;60.58
11692;BME280;33659;42.672;23.354;2023-12-20T12:02:25;68078.72;;;10.22;56.69
11692;BME280;33659;42.672;23.354;2023-12-20T12:04:51;68335.31;;;12.61;50.52
11692;BME280;33659;42.672;23.354;2023-12-20T12:07:18;68550.25;;;14.65;44.76
11692;BME280;33659;42.672;23.354;2023-12-20T12:09:45;68711.97;;;16.14;40.63
11692;BME280;33659;42.672;23.354;2023-12-20T12:12:12;68825.63;;;17.21;37.75
11692;BME280;33659;42.672;23.354;2023-12-20T12:14:44;68878.34;;;17.70;37.21
11692;BME280;33659;42.672;23.354;2023-12-20T12:17:13;68983.31;;;18.66;35.23
11692;BME280;33659;42.672;23.354;2023-12-20T12:19:40;69045.94;;;19.25;34.50
11692;BME280;33659;42.672;23.354;2023-12-20T12:22:08;69086.38;;;19.65;33.51
11692;BME280;33659;42.672;23.354;2023-12-20T12:24:38;69079.28;;;19.58;33.31
11692;BME280;33659;42.672;23.354;2023-12-20T12:27:05;69079.81;;;19.59;33.11
11692;BME280;33659;42.672;23.354;2023-12-20T12:29:32;69127.13;;;20.00;32.75
11692;BME280;33659;42.672;23.354;2023-12-20T12:31:59;69189.25;;;20.59;31.75
11692;BME280;33659;42.672;23.354;2023-12-20T12:34:28;69089.34;;;20.34;31.63
11692;BME280;33659;42.672;23.354;2023-12-20T12:36:55;69185.53;;;20.58;31.65
11692;BME280;33659;42.672;23.354;2023-12-20T12:39:23;69169.25;;;21.04;31.07
11692;BME280;33659;42.672;23.354;2023-12-20T12:41:50;69211.84;;;21.46;30.23
11692;BME280;33659;42.672;23.354;2023-12-20T12:44:17;69308.59;;;21.68;29.94
11692;BME280;33659;42.672;23.354;2023-12-20T12:46:44;69293.41;;;21.56;30.00
11692;BME280;33659;42.672;23.354;2023-12-20T12:49:11;69155.19;;;20.93;30.66
11692;BME280;33659;42.672;23.354;2023-12-20T12:51:39;69128.75;;;20.02;31.75
11692;BME280;33659;42.672;23.354;2023-12-20T12:54:06;69042.75;;;19.24;32.80
11692;BME280;33659;42.672;23.354;2023-12-20T12:56:32;68961.63;;;18.48;33.96
11692;BME280;33659;42.672;23.354;2023-12-20T12:58:59;68873.38;;;17.63;35.12